createdAt,value
2023-04-07T00:00:42.256Z,49.70
2023-04-07T00:17:06.790Z,49.30
2023-04-07T00:28:03.399Z,49.60
2023-04-07T00:33:31.539Z,50.40
2023-04-07T00:38:59.654Z,50.00
2023-04-07T00:44:30.870Z,50.20
2023-04-07T00:55:26.927Z,50.20
2023-04-07T01:01:27.458Z,50.60
2023-04-07T01:07:04.390Z,50.80
2023-04-07T01:12:58.330Z,50.90
2023-04-07T01:18:34.663Z,51.00
2023-04-07T01:24:22.264Z,51.00
2023-04-07T01:29:52.476Z,51.60
2023-04-07T01:35:22.565Z,51.70
2023-04-07T01:40:51.330Z,51.30
2023-04-07T01:46:19.697Z,51.40
2023-04-07T01:57:18.340Z,51.80
2023-04-07T02:02:55.872Z,51.90
2023-04-07T02:08:27.668Z,52.20
2023-04-07T02:13:57.776Z,52.50
2023-04-07T02:19:30.485Z,52.40
2023-04-07T02:24:58.287Z,52.80
2023-04-07T02:35:57.145Z,53.00
2023-04-07T02:46:54.097Z,53.80
2023-04-07T02:52:21.960Z,54.30
2023-04-07T02:57:49.894Z,54.40
2023-04-07T03:03:31.919Z,55.50
2023-04-07T03:09:09.597Z,56.30
2023-04-07T03:14:37.553Z,57.20
2023-04-07T03:20:07.737Z,57.50
2023-04-07T03:31:07.513Z,58.20
2023-04-07T03:36:36.093Z,58.50
2023-04-07T03:42:06.248Z,58.60
2023-04-07T04:04:03.716Z,59.30
2023-04-07T04:09:33.499Z,59.60
2023-04-07T04:26:03.725Z,60.00
2023-04-07T04:31:34.184Z,60.30
2023-04-07T04:37:02.786Z,60.10
2023-04-07T04:42:33.864Z,61.00
2023-04-07T04:48:03.592Z,60.50
2023-04-07T05:04:53.429Z,60.90
2023-04-07T05:21:26.825Z,61.10
2023-04-07T05:32:29.478Z,61.20
2023-04-07T05:37:59.564Z,61.30
2023-04-07T06:05:25.633Z,62.20
2023-04-07T06:10:56.836Z,62.80
2023-04-07T06:16:24.854Z,63.20
2023-04-07T06:21:53.428Z,62.60
2023-04-07T06:27:22.534Z,62.90
2023-04-07T06:38:19.918Z,62.90
2023-04-07T06:43:51.461Z,63.00
2023-04-07T06:49:20.194Z,63.10
2023-04-07T06:54:47.951Z,63.10
2023-04-07T07:00:17.136Z,63.50
2023-04-07T07:11:13.374Z,63.60
2023-04-07T07:27:37.547Z,63.10
2023-04-07T07:33:05.796Z,63.10
2023-04-07T07:44:05.387Z,63.00
2023-04-07T07:49:33.272Z,62.90
2023-04-07T08:00:29.425Z,62.70
2023-04-07T08:16:53.713Z,62.60
2023-04-07T08:33:17.943Z,62.10
2023-04-07T08:38:48.821Z,62.00
2023-04-07T08:44:19.676Z,62.00
2023-04-07T08:49:53.157Z,61.80
2023-04-07T08:55:22.438Z,61.60
2023-04-07T09:00:51.951Z,62.00
2023-04-07T09:11:49.642Z,61.30
2023-04-07T09:17:19.868Z,60.70
2023-04-07T09:22:48.124Z,60.60
2023-04-07T09:28:16.053Z,60.40
2023-04-07T09:33:43.992Z,60.50
2023-04-07T09:39:12.160Z,60.30
2023-04-07T09:44:44.311Z,61.60
2023-04-07T09:50:13.402Z,60.80
2023-04-07T09:55:45.355Z,60.20
2023-04-07T10:01:19.386Z,59.70
2023-04-07T10:06:48.539Z,59.40
2023-04-07T10:12:18.748Z,59.30
2023-04-07T10:17:48.710Z,59.80
2023-04-07T10:23:27.253Z,58.60
2023-04-07T10:29:08.983Z,57.70
2023-04-07T10:34:53.664Z,58.30
2023-04-07T10:40:22.978Z,57.60
2023-04-07T10:45:53.724Z,57.30
2023-04-07T10:51:21.593Z,57.40
2023-04-07T10:57:18.327Z,57.40
2023-04-07T11:02:46.765Z,57.20
2023-04-07T11:08:14.694Z,57.00
2023-04-07T11:13:44.901Z,56.70
2023-04-07T11:19:12.977Z,56.70
2023-04-07T11:24:40.936Z,56.50
2023-04-07T11:30:10.538Z,56.20
2023-04-07T11:35:38.885Z,55.90
2023-04-07T11:41:13.521Z,56.20
2023-04-07T11:46:54.986Z,55.80
2023-04-07T11:52:22.945Z,55.80
2023-04-07T11:57:52.360Z,55.50
2023-04-07T12:03:20.962Z,55.20
2023-04-07T12:08:49.341Z,55.20
2023-04-07T12:14:17.597Z,55.00
2023-04-07T12:19:46.051Z,54.90
2023-04-07T12:25:13.834Z,54.70
2023-04-07T12:30:43.694Z,54.70
2023-04-07T12:36:11.865Z,54.50
2023-04-07T12:41:40.077Z,54.40
2023-04-07T12:47:08.478Z,54.60
2023-04-07T12:52:36.628Z,54.50
2023-04-07T12:58:04.959Z,54.30
2023-04-07T13:03:33.145Z,54.50
2023-04-07T13:09:01.255Z,54.50
2023-04-07T13:14:29.110Z,54.60
2023-04-07T13:19:57.623Z,54.70
2023-04-07T13:25:25.504Z,54.70
2023-04-07T13:30:53.565Z,54.70
2023-04-07T13:36:23.278Z,54.90
2023-04-07T13:41:51.405Z,54.80
2023-04-07T13:47:20.064Z,55.00
2023-04-07T13:52:48.448Z,55.00
2023-04-07T13:58:17.245Z,55.10
2023-04-07T14:03:45.436Z,55.10
2023-04-07T14:09:13.324Z,55.00
2023-04-07T14:14:42.053Z,55.00
2023-04-07T14:20:11.005Z,54.90
2023-04-07T14:25:39.367Z,54.90
2023-04-07T14:31:07.836Z,55.00
2023-04-07T14:36:36.061Z,55.00
2023-04-07T14:42:05.689Z,55.00
2023-04-07T14:47:33.591Z,55.10
2023-04-07T14:53:02.476Z,55.40
2023-04-07T14:58:31.136Z,55.20
2023-04-07T15:04:01.086Z,55.70
2023-04-07T15:09:29.327Z,55.00
2023-04-07T15:14:57.907Z,55.20
2023-04-07T15:20:26.321Z,55.20
2023-04-07T15:25:56.288Z,55.20
2023-04-07T15:31:27.470Z,55.30
2023-04-07T15:36:55.744Z,55.30
2023-04-07T15:42:23.882Z,55.40
2023-04-07T15:47:53.939Z,55.30
2023-04-07T15:53:22.697Z,55.40
2023-04-07T15:58:50.952Z,55.40
2023-04-07T16:04:19.788Z,55.40
2023-04-07T16:09:47.964Z,55.40
2023-04-07T16:15:25.651Z,55.60
2023-04-07T16:21:02.975Z,55.60
2023-04-07T16:26:32.811Z,55.80
2023-04-07T16:32:01.132Z,55.90
2023-04-07T16:37:30.558Z,56.10
2023-04-07T16:42:58.687Z,56.20
2023-04-07T16:48:26.560Z,56.30
2023-04-07T16:53:54.365Z,56.40
2023-04-07T16:59:22.369Z,57.30
2023-04-07T17:04:50.129Z,56.80
2023-04-07T17:10:18.014Z,57.20
2023-04-07T17:15:45.770Z,57.90
2023-04-07T17:21:15.500Z,58.10
2023-04-07T17:26:46.655Z,58.10
2023-04-07T17:32:14.409Z,58.20
2023-04-07T17:37:42.446Z,58.30
2023-04-07T17:43:11.109Z,58.50
2023-04-07T17:48:39.260Z,58.60
2023-04-07T17:54:07.156Z,58.70
2023-04-07T17:59:35.045Z,58.70
2023-04-07T18:05:05.879Z,58.80
2023-04-07T18:10:33.650Z,58.80
2023-04-07T18:16:01.685Z,58.90
2023-04-07T18:21:29.671Z,59.00
2023-04-07T18:26:57.687Z,59.00
2023-04-07T18:32:25.682Z,59.10
2023-04-07T18:37:53.749Z,59.20
2023-04-07T18:43:22.418Z,59.20
2023-04-07T18:48:51.198Z,59.20
2023-04-07T18:54:19.145Z,59.30
2023-04-07T18:59:46.939Z,59.40
2023-04-07T19:05:15.383Z,59.40
2023-04-07T19:10:43.817Z,59.50
2023-04-07T19:16:12.199Z,59.50
2023-04-07T19:21:40.652Z,59.60
2023-04-07T19:27:09.102Z,59.60
2023-04-07T19:32:38.122Z,59.60
2023-04-07T19:38:07.282Z,59.70
2023-04-07T19:43:36.274Z,59.80
2023-04-07T19:49:04.238Z,59.90
2023-04-07T19:54:33.098Z,60.00
2023-04-07T20:00:01.150Z,60.10
2023-04-07T20:05:34.100Z,60.20
2023-04-07T20:11:01.936Z,60.40
2023-04-07T20:16:32.505Z,60.40
2023-04-07T20:22:00.452Z,60.50
2023-04-07T20:27:28.166Z,60.60
2023-04-07T20:32:56.258Z,60.80
2023-04-07T20:38:25.057Z,61.00
2023-04-07T20:43:54.991Z,61.00
2023-04-07T20:49:23.294Z,61.20
2023-04-07T20:54:51.474Z,61.30
2023-04-07T21:00:19.669Z,61.40
2023-04-07T21:05:48.720Z,61.60
2023-04-07T21:11:18.450Z,61.00
2023-04-07T21:16:46.441Z,61.80
2023-04-07T21:22:14.454Z,62.10
2023-04-07T21:27:42.271Z,62.10
2023-04-07T21:33:11.146Z,62.20
2023-04-07T21:38:39.995Z,62.30
2023-04-07T21:44:10.905Z,62.40
2023-04-07T21:49:39.157Z,62.50
2023-04-07T21:55:08.560Z,62.70
2023-04-07T22:00:38.422Z,62.80
2023-04-07T22:06:07.415Z,63.00
2023-04-07T22:11:36.283Z,63.00
2023-04-07T22:17:04.139Z,63.10
2023-04-07T22:22:33.836Z,63.10
2023-04-07T22:28:02.760Z,63.30
2023-04-07T22:33:30.591Z,63.40
2023-04-07T22:38:58.422Z,63.60
2023-04-07T22:44:26.610Z,64.40
2023-04-07T22:49:54.973Z,64.50
2023-04-07T22:55:22.944Z,64.10
2023-04-07T23:00:50.794Z,64.30
2023-04-07T23:06:18.568Z,64.50
2023-04-07T23:11:47.391Z,64.80
2023-04-07T23:17:16.095Z,65.00
2023-04-07T23:22:43.961Z,65.40
2023-04-07T23:28:11.700Z,65.60
2023-04-07T23:33:39.580Z,65.90
2023-04-07T23:39:07.436Z,66.10
2023-04-07T23:44:35.497Z,66.60
2023-04-07T23:50:03.489Z,66.90
2023-04-07T23:55:31.358Z,67.20
